sensor_id;sensor_type;location;lat;lon;timestamp;P1;durP1;ratioP1;P2;durP2;ratioP2
66886;SDS011;53798;51.680;5.976;2022-07-25T00:00:31;8.00;;;6.20;;
66886;SDS011;53798;51.680;5.976;2022-07-25T00:02:58;12.20;;;6.20;;
66886;SDS011;53798;51.680;5.976;2022-07-25T00:05:25;7.95;;;6.25;;
66886;SDS011;53798;51.680;5.976;2022-07-25T00:07:53;7.05;;;5.60;;
66886;SDS011;53798;51.680;5.976;2022-07-25T00:10:22;8.25;;;6.43;;
66886;SDS011;53798;51.680;5.976;2022-07-25T00:12:50;7.90;;;6.35;;
66886;SDS011;53798;51.680;5.976;2022-07-25T00:15:17;8.63;;;5.75;;
66886;SDS011;53798;51.680;5.976;2022-07-25T00:17:45;7.53;;;6.50;;
66886;SDS011;53798;51.680;5.976;2022-07-25T00:20:12;7.38;;;6.15;;
66886;SDS011;53798;51.680;5.976;2022-07-25T00:22:39;7.10;;;6.40;;
66886;SDS011;53798;51.680;5.976;2022-07-25T00:25:06;8.25;;;6.38;;
66886;SDS011;53798;51.680;5.976;2022-07-25T00:27:34;6.90;;;6.20;;
66886;SDS011;53798;51.680;5.976;2022-07-25T00:30:01;8.52;;;7.30;;
66886;SDS011;53798;51.680;5.976;2022-07-25T00:32:29;10.13;;;7.18;;
66886;SDS011;53798;51.680;5.976;2022-07-25T00:34:57;10.85;;;6.93;;
66886;SDS011;53798;51.680;5.976;2022-07-25T00:37:24;10.98;;;6.72;;
66886;SDS011;53798;51.680;5.976;2022-07-25T00:39:51;8.48;;;7.60;;
66886;SDS011;53798;51.680;5.976;2022-07-25T00:42:18;12.27;;;6.93;;
66886;SDS011;53798;51.680;5.976;2022-07-25T00:44:47;8.82;;;6.85;;
66886;SDS011;53798;51.680;5.976;2022-07-25T00:47:16;7.80;;;7.07;;
66886;SDS011;53798;51.680;5.976;2022-07-25T00:49:44;8.63;;;7.38;;
66886;SDS011;53798;51.680;5.976;2022-07-25T00:52:11;10.05;;;7.05;;
66886;SDS011;53798;51.680;5.976;2022-07-25T00:54:39;8.30;;;7.05;;
66886;SDS011;53798;51.680;5.976;2022-07-25T00:57:06;9.57;;;6.93;;
66886;SDS011;53798;51.680;5.976;2022-07-25T00:59:33;9.80;;;7.70;;
66886;SDS011;53798;51.680;5.976;2022-07-25T01:02:01;8.95;;;7.13;;
66886;SDS011;53798;51.680;5.976;2022-07-25T01:04:29;8.55;;;7.60;;
66886;SDS011;53798;51.680;5.976;2022-07-25T01:06:57;8.15;;;7.30;;
66886;SDS011;53798;51.680;5.976;2022-07-25T01:09:26;10.88;;;8.20;;
66886;SDS011;53798;51.680;5.976;2022-07-25T01:11:54;8.43;;;7.00;;
66886;SDS011;53798;51.680;5.976;2022-07-25T01:14:22;8.43;;;7.35;;
66886;SDS011;53798;51.680;5.976;2022-07-25T01:16:53;13.02;;;7.38;;
66886;SDS011;53798;51.680;5.976;2022-07-25T01:19:20;9.38;;;7.40;;
66886;SDS011;53798;51.680;5.976;2022-07-25T01:21:48;10.35;;;8.32;;
66886;SDS011;53798;51.680;5.976;2022-07-25T01:24:16;9.10;;;8.10;;
66886;SDS011;53798;51.680;5.976;2022-07-25T01:26:43;10.85;;;8.75;;
66886;SDS011;53798;51.680;5.976;2022-07-25T01:29:10;11.88;;;8.27;;
66886;SDS011;53798;51.680;5.976;2022-07-25T01:31:37;11.45;;;7.38;;
66886;SDS011;53798;51.680;5.976;2022-07-25T01:34:04;10.20;;;8.18;;
66886;SDS011;53798;51.680;5.976;2022-07-25T01:36:32;9.68;;;8.40;;
66886;SDS011;53798;51.680;5.976;2022-07-25T01:38:59;10.35;;;8.63;;
66886;SDS011;53798;51.680;5.976;2022-07-25T01:41:27;11.90;;;8.02;;
66886;SDS011;53798;51.680;5.976;2022-07-25T01:43:54;9.45;;;8.45;;
66886;SDS011;53798;51.680;5.976;2022-07-25T01:46:22;9.30;;;8.32;;
66886;SDS011;53798;51.680;5.976;2022-07-25T01:48:49;8.98;;;7.63;;
66886;SDS011;53798;51.680;5.976;2022-07-25T01:51:16;10.85;;;8.60;;
66886;SDS011;53798;51.680;5.976;2022-07-25T01:53:46;11.70;;;9.15;;
66886;SDS011;53798;51.680;5.976;2022-07-25T01:56:14;10.10;;;8.60;;
66886;SDS011;53798;51.680;5.976;2022-07-25T01:58:42;11.07;;;9.05;;
66886;SDS011;53798;51.680;5.976;2022-07-25T02:01:10;13.20;;;9.45;;
66886;SDS011;53798;51.680;5.976;2022-07-25T02:03:37;9.73;;;8.35;;
66886;SDS011;53798;51.680;5.976;2022-07-25T02:06:05;11.95;;;8.77;;
66886;SDS011;53798;51.680;5.976;2022-07-25T02:08:33;11.02;;;8.35;;
66886;SDS011;53798;51.680;5.976;2022-07-25T02:11:01;11.18;;;9.38;;
66886;SDS011;53798;51.680;5.976;2022-07-25T02:13:28;14.15;;;9.35;;
66886;SDS011;53798;51.680;5.976;2022-07-25T02:15:55;11.80;;;9.43;;
66886;SDS011;53798;51.680;5.976;2022-07-25T02:18:23;10.40;;;9.00;;
66886;SDS011;53798;51.680;5.976;2022-07-25T02:20:50;11.32;;;8.63;;
66886;SDS011;53798;51.680;5.976;2022-07-25T02:23:17;9.90;;;8.02;;
66886;SDS011;53798;51.680;5.976;2022-07-25T02:25:44;11.73;;;8.48;;
66886;SDS011;53798;51.680;5.976;2022-07-25T02:28:11;10.82;;;8.50;;
66886;SDS011;53798;51.680;5.976;2022-07-25T02:30:39;10.02;;;8.63;;
66886;SDS011;53798;51.680;5.976;2022-07-25T02:33:06;12.98;;;8.93;;
66886;SDS011;53798;51.680;5.976;2022-07-25T02:35:34;12.00;;;9.55;;
66886;SDS011;53798;51.680;5.976;2022-07-25T02:38:01;12.20;;;9.73;;
66886;SDS011;53798;51.680;5.976;2022-07-25T02:40:28;11.27;;;9.57;;
66886;SDS011;53798;51.680;5.976;2022-07-25T02:42:56;11.77;;;9.85;;
66886;SDS011;53798;51.680;5.976;2022-07-25T02:45:23;13.93;;;10.75;;
66886;SDS011;53798;51.680;5.976;2022-07-25T02:47:50;15.20;;;10.10;;
66886;SDS011;53798;51.680;5.976;2022-07-25T02:50:17;13.18;;;9.30;;
66886;SDS011;53798;51.680;5.976;2022-07-25T02:52:45;14.27;;;10.30;;
66886;SDS011;53798;51.680;5.976;2022-07-25T02:55:12;12.77;;;9.80;;
66886;SDS011;53798;51.680;5.976;2022-07-25T02:57:39;11.52;;;9.05;;
66886;SDS011;53798;51.680;5.976;2022-07-25T03:00:07;14.88;;;10.57;;
66886;SDS011;53798;51.680;5.976;2022-07-25T03:02:35;10.95;;;8.75;;
66886;SDS011;53798;51.680;5.976;2022-07-25T03:05:06;12.88;;;9.75;;
66886;SDS011;53798;51.680;5.976;2022-07-25T03:07:36;14.73;;;10.52;;
66886;SDS011;53798;51.680;5.976;2022-07-25T03:10:06;12.63;;;9.60;;
66886;SDS011;53798;51.680;5.976;2022-07-25T03:12:37;15.18;;;10.00;;
66886;SDS011;53798;51.680;5.976;2022-07-25T03:15:06;15.80;;;10.38;;
66886;SDS011;53798;51.680;5.976;2022-07-25T03:17:34;14.23;;;10.32;;
66886;SDS011;53798;51.680;5.976;2022-07-25T03:20:04;11.48;;;10.02;;
66886;SDS011;53798;51.680;5.976;2022-07-25T03:22:33;11.77;;;9.60;;
66886;SDS011;53798;51.680;5.976;2022-07-25T03:25:01;12.57;;;9.73;;
66886;SDS011;53798;51.680;5.976;2022-07-25T03:27:29;12.05;;;10.13;;
66886;SDS011;53798;51.680;5.976;2022-07-25T03:29:57;12.20;;;9.70;;
66886;SDS011;53798;51.680;5.976;2022-07-25T03:32:24;12.27;;;9.77;;
66886;SDS011;53798;51.680;5.976;2022-07-25T03:34:51;14.52;;;10.40;;
66886;SDS011;53798;51.680;5.976;2022-07-25T03:37:18;13.43;;;10.10;;
66886;SDS011;53798;51.680;5.976;2022-07-25T03:39:46;16.23;;;10.15;;
66886;SDS011;53798;51.680;5.976;2022-07-25T03:42:13;14.20;;;10.05;;
66886;SDS011;53798;51.680;5.976;2022-07-25T03:44:41;11.93;;;9.40;;
66886;SDS011;53798;51.680;5.976;2022-07-25T03:47:08;13.98;;;9.55;;
66886;SDS011;53798;51.680;5.976;2022-07-25T03:49:52;11.00;;;9.35;;
66886;SDS011;53798;51.680;5.976;2022-07-25T03:52:19;13.23;;;10.03;;
66886;SDS011;53798;51.680;5.976;2022-07-25T03:54:46;13.85;;;9.07;;
66886;SDS011;53798;51.680;5.976;2022-07-25T03:57:13;11.00;;;9.10;;
66886;SDS011;53798;51.680;5.976;2022-07-25T03:59:40;10.65;;;8.70;;
66886;SDS011;53798;51.680;5.976;2022-07-25T04:02:08;11.63;;;8.30;;
66886;SDS011;53798;51.680;5.976;2022-07-25T04:04:36;12.48;;;8.95;;
66886;SDS011;53798;51.680;5.976;2022-07-25T04:07:03;10.88;;;8.85;;
66886;SDS011;53798;51.680;5.976;2022-07-25T04:09:30;13.25;;;8.82;;
66886;SDS011;53798;51.680;5.976;2022-07-25T04:11:59;12.32;;;8.43;;
66886;SDS011;53798;51.680;5.976;2022-07-25T04:14:26;15.13;;;8.80;;
66886;SDS011;53798;51.680;5.976;2022-07-25T04:16:54;12.30;;;8.77;;
66886;SDS011;53798;51.680;5.976;2022-07-25T04:19:21;11.75;;;8.65;;
66886;SDS011;53798;51.680;5.976;2022-07-25T04:21:51;20.95;;;8.90;;
66886;SDS011;53798;51.680;5.976;2022-07-25T04:24:18;18.30;;;8.77;;
66886;SDS011;53798;51.680;5.976;2022-07-25T04:26:46;13.80;;;8.40;;
66886;SDS011;53798;51.680;5.976;2022-07-25T04:29:13;12.73;;;8.55;;
66886;SDS011;53798;51.680;5.976;2022-07-25T04:31:40;11.57;;;8.52;;
66886;SDS011;53798;51.680;5.976;2022-07-25T04:34:07;11.38;;;8.43;;
66886;SDS011;53798;51.680;5.976;2022-07-25T04:36:35;10.85;;;8.05;;
66886;SDS011;53798;51.680;5.976;2022-07-25T04:39:02;10.27;;;7.68;;
66886;SDS011;53798;51.680;5.976;2022-07-25T04:41:29;13.70;;;7.82;;
66886;SDS011;53798;51.680;5.976;2022-07-25T04:43:56;9.70;;;7.57;;
66886;SDS011;53798;51.680;5.976;2022-07-25T04:46:24;10.82;;;8.07;;
66886;SDS011;53798;51.680;5.976;2022-07-25T04:48:51;12.85;;;7.00;;
66886;SDS011;53798;51.680;5.976;2022-07-25T04:51:18;12.23;;;7.78;;
66886;SDS011;53798;51.680;5.976;2022-07-25T04:53:46;11.48;;;7.40;;
66886;SDS011;53798;51.680;5.976;2022-07-25T04:56:13;16.58;;;6.30;;
66886;SDS011;53798;51.680;5.976;2022-07-25T04:58:40;9.40;;;7.38;;
66886;SDS011;53798;51.680;5.976;2022-07-25T05:01:08;12.07;;;7.00;;
66886;SDS011;53798;51.680;5.976;2022-07-25T05:03:35;18.95;;;8.48;;
66886;SDS011;53798;51.680;5.976;2022-07-25T05:06:02;13.20;;;6.95;;
66886;SDS011;53798;51.680;5.976;2022-07-25T05:08:29;9.50;;;6.95;;
66886;SDS011;53798;51.680;5.976;2022-07-25T05:10:56;9.77;;;6.72;;
66886;SDS011;53798;51.680;5.976;2022-07-25T05:13:23;11.00;;;7.90;;
66886;SDS011;53798;51.680;5.976;2022-07-25T05:15:51;11.55;;;7.85;;
66886;SDS011;53798;51.680;5.976;2022-07-25T05:18:18;11.38;;;7.18;;
66886;SDS011;53798;51.680;5.976;2022-07-25T05:20:45;12.32;;;7.20;;
66886;SDS011;53798;51.680;5.976;2022-07-25T05:23:12;11.82;;;7.40;;
66886;SDS011;53798;51.680;5.976;2022-07-25T05:25:39;12.82;;;7.82;;
66886;SDS011;53798;51.680;5.976;2022-07-25T05:28:06;11.68;;;7.35;;
66886;SDS011;53798;51.680;5.976;2022-07-25T05:30:35;14.90;;;7.85;;
66886;SDS011;53798;51.680;5.976;2022-07-25T05:33:05;11.50;;;7.75;;
66886;SDS011;53798;51.680;5.976;2022-07-25T05:35:33;12.18;;;7.82;;
66886;SDS011;53798;51.680;5.976;2022-07-25T05:38:00;13.65;;;8.27;;
66886;SDS011;53798;51.680;5.976;2022-07-25T05:40:27;13.57;;;8.40;;
66886;SDS011;53798;51.680;5.976;2022-07-25T05:42:54;12.93;;;8.82;;
66886;SDS011;53798;51.680;5.976;2022-07-25T05:45:28;15.95;;;9.35;;
66886;SDS011;53798;51.680;5.976;2022-07-25T05:47:57;11.20;;;7.97;;
66886;SDS011;53798;51.680;5.976;2022-07-25T05:50:25;9.82;;;7.50;;
66886;SDS011;53798;51.680;5.976;2022-07-25T05:52:52;10.55;;;7.63;;
66886;SDS011;53798;51.680;5.976;2022-07-25T05:55:19;12.07;;;8.35;;
66886;SDS011;53798;51.680;5.976;2022-07-25T05:57:47;11.45;;;7.20;;
66886;SDS011;53798;51.680;5.976;2022-07-25T06:00:14;15.98;;;7.55;;
66886;SDS011;53798;51.680;5.976;2022-07-25T06:02:42;14.68;;;7.55;;
66886;SDS011;53798;51.680;5.976;2022-07-25T06:05:09;15.20;;;6.60;;
66886;SDS011;53798;51.680;5.976;2022-07-25T06:07:36;18.30;;;8.10;;
66886;SDS011;53798;51.680;5.976;2022-07-25T06:10:03;22.02;;;7.53;;
66886;SDS011;53798;51.680;5.976;2022-07-25T06:12:32;12.82;;;8.00;;
66886;SDS011;53798;51.680;5.976;2022-07-25T06:15:03;15.75;;;7.95;;
66886;SDS011;53798;51.680;5.976;2022-07-25T06:17:31;23.00;;;8.25;;
66886;SDS011;53798;51.680;5.976;2022-07-25T06:19:59;21.10;;;7.80;;
66886;SDS011;53798;51.680;5.976;2022-07-25T06:22:26;22.67;;;7.75;;
66886;SDS011;53798;51.680;5.976;2022-07-25T06:24:53;18.92;;;7.78;;
66886;SDS011;53798;51.680;5.976;2022-07-25T06:27:20;18.10;;;8.57;;
66886;SDS011;53798;51.680;5.976;2022-07-25T06:29:54;11.68;;;7.20;;
66886;SDS011;53798;51.680;5.976;2022-07-25T06:32:22;14.57;;;6.78;;
66886;SDS011;53798;51.680;5.976;2022-07-25T06:34:49;13.75;;;7.10;;
66886;SDS011;53798;51.680;5.976;2022-07-25T06:37:16;16.10;;;7.10;;
66886;SDS011;53798;51.680;5.976;2022-07-25T06:39:44;9.13;;;6.50;;
66886;SDS011;53798;51.680;5.976;2022-07-25T06:42:13;14.00;;;5.85;;
66886;SDS011;53798;51.680;5.976;2022-07-25T06:44:46;16.52;;;6.40;;
66886;SDS011;53798;51.680;5.976;2022-07-25T06:47:13;16.88;;;6.88;;
66886;SDS011;53798;51.680;5.976;2022-07-25T06:49:40;10.48;;;5.80;;
66886;SDS011;53798;51.680;5.976;2022-07-25T06:52:08;11.05;;;6.00;;
66886;SDS011;53798;51.680;5.976;2022-07-25T06:54:36;9.20;;;6.13;;
66886;SDS011;53798;51.680;5.976;2022-07-25T06:57:03;19.20;;;6.45;;
66886;SDS011;53798;51.680;5.976;2022-07-25T06:59:31;17.92;;;6.32;;
66886;SDS011;53798;51.680;5.976;2022-07-25T07:02:07;31.10;;;6.82;;
66886;SDS011;53798;51.680;5.976;2022-07-25T07:04:34;9.43;;;5.88;;
66886;SDS011;53798;51.680;5.976;2022-07-25T07:07:01;15.40;;;6.38;;
66886;SDS011;53798;51.680;5.976;2022-07-25T07:09:29;20.70;;;6.78;;
66886;SDS011;53798;51.680;5.976;2022-07-25T07:11:56;25.60;;;7.28;;
66886;SDS011;53798;51.680;5.976;2022-07-25T07:14:23;53.90;;;9.80;;
66886;SDS011;53798;51.680;5.976;2022-07-25T07:16:52;35.30;;;7.75;;
66886;SDS011;53798;51.680;5.976;2022-07-25T07:19:20;22.42;;;7.25;;
66886;SDS011;53798;51.680;5.976;2022-07-25T07:21:47;17.70;;;7.03;;
66886;SDS011;53798;51.680;5.976;2022-07-25T07:24:17;13.52;;;6.63;;
66886;SDS011;53798;51.680;5.976;2022-07-25T07:26:52;9.68;;;5.93;;
66886;SDS011;53798;51.680;5.976;2022-07-25T07:29:20;10.18;;;5.97;;
66886;SDS011;53798;51.680;5.976;2022-07-25T07:31:47;8.38;;;5.70;;
66886;SDS011;53798;51.680;5.976;2022-07-25T07:34:15;20.77;;;6.68;;
66886;SDS011;53798;51.680;5.976;2022-07-25T07:36:42;7.38;;;5.43;;
66886;SDS011;53798;51.680;5.976;2022-07-25T07:39:10;15.55;;;5.57;;
66886;SDS011;53798;51.680;5.976;2022-07-25T07:41:37;9.38;;;5.72;;
66886;SDS011;53798;51.680;5.976;2022-07-25T07:44:05;9.35;;;4.97;;
66886;SDS011;53798;51.680;5.976;2022-07-25T07:46:32;7.18;;;4.70;;
66886;SDS011;53798;51.680;5.976;2022-07-25T07:48:59;6.97;;;4.65;;
66886;SDS011;53798;51.680;5.976;2022-07-25T07:51:27;11.07;;;4.80;;
66886;SDS011;53798;51.680;5.976;2022-07-25T07:53:54;11.00;;;5.07;;
66886;SDS011;53798;51.680;5.976;2022-07-25T07:56:40;7.88;;;4.57;;
66886;SDS011;53798;51.680;5.976;2022-07-25T07:59:08;10.13;;;4.70;;
66886;SDS011;53798;51.680;5.976;2022-07-25T08:01:37;10.32;;;4.80;;
66886;SDS011;53798;51.680;5.976;2022-07-25T08:04:04;12.88;;;4.90;;
66886;SDS011;53798;51.680;5.976;2022-07-25T08:06:31;11.90;;;5.18;;
66886;SDS011;53798;51.680;5.976;2022-07-25T08:08:59;7.00;;;4.15;;
66886;SDS011;53798;51.680;5.976;2022-07-25T08:11:28;4.78;;;3.80;;
66886;SDS011;53798;51.680;5.976;2022-07-25T08:13:56;11.27;;;4.40;;
66886;SDS011;53798;51.680;5.976;2022-07-25T08:16:23;18.55;;;4.32;;
66886;SDS011;53798;51.680;5.976;2022-07-25T08:18:51;7.13;;;3.97;;
66886;SDS011;53798;51.680;5.976;2022-07-25T08:21:18;10.93;;;4.03;;
66886;SDS011;53798;51.680;5.976;2022-07-25T08:23:46;8.13;;;3.70;;
66886;SDS011;53798;51.680;5.976;2022-07-25T08:26:13;9.85;;;3.83;;
66886;SDS011;53798;51.680;5.976;2022-07-25T08:28:41;16.88;;;4.07;;
66886;SDS011;53798;51.680;5.976;2022-07-25T08:31:09;9.65;;;3.83;;
66886;SDS011;53798;51.680;5.976;2022-07-25T08:33:36;6.18;;;3.47;;
66886;SDS011;53798;51.680;5.976;2022-07-25T08:36:03;6.47;;;3.15;;
66886;SDS011;53798;51.680;5.976;2022-07-25T08:38:31;11.15;;;3.17;;
66886;SDS011;53798;51.680;5.976;2022-07-25T08:41:00;11.48;;;3.80;;
66886;SDS011;53798;51.680;5.976;2022-07-25T08:43:29;5.45;;;3.38;;
66886;SDS011;53798;51.680;5.976;2022-07-25T08:45:59;27.30;;;4.63;;
66886;SDS011;53798;51.680;5.976;2022-07-25T08:48:27;6.53;;;3.10;;
66886;SDS011;53798;51.680;5.976;2022-07-25T08:50:55;9.10;;;3.42;;
66886;SDS011;53798;51.680;5.976;2022-07-25T08:53:26;7.80;;;3.33;;
66886;SDS011;53798;51.680;5.976;2022-07-25T08:55:59;23.10;;;4.05;;
66886;SDS011;53798;51.680;5.976;2022-07-25T08:58:35;4.43;;;2.70;;
66886;SDS011;53798;51.680;5.976;2022-07-25T09:01:03;5.05;;;3.42;;
66886;SDS011;53798;51.680;5.976;2022-07-25T09:03:30;5.28;;;2.83;;
66886;SDS011;53798;51.680;5.976;2022-07-25T09:05:58;7.88;;;2.83;;
66886;SDS011;53798;51.680;5.976;2022-07-25T09:08:28;15.27;;;2.85;;
66886;SDS011;53798;51.680;5.976;2022-07-25T09:10:55;6.65;;;2.35;;
66886;SDS011;53798;51.680;5.976;2022-07-25T09:13:23;4.80;;;2.08;;
66886;SDS011;53798;51.680;5.976;2022-07-25T09:15:51;15.02;;;2.60;;
66886;SDS011;53798;51.680;5.976;2022-07-25T09:18:27;7.72;;;2.20;;
66886;SDS011;53798;51.680;5.976;2022-07-25T09:20:58;12.50;;;2.75;;
66886;SDS011;53798;51.680;5.976;2022-07-25T09:23:37;8.15;;;2.10;;
66886;SDS011;53798;51.680;5.976;2022-07-25T09:26:08;34.35;;;3.72;;
66886;SDS011;53798;51.680;5.976;2022-07-25T09:31:09;14.55;;;1.55;;
66886;SDS011;53798;51.680;5.976;2022-07-25T09:33:48;10.13;;;1.70;;
66886;SDS011;53798;51.680;5.976;2022-07-25T09:36:22;4.18;;;1.10;;
66886;SDS011;53798;51.680;5.976;2022-07-25T09:38:52;3.95;;;1.25;;
66886;SDS011;53798;51.680;5.976;2022-07-25T09:41:33;5.47;;;1.50;;
66886;SDS011;53798;51.680;5.976;2022-07-25T09:44:02;7.97;;;1.55;;
66886;SDS011;53798;51.680;5.976;2022-07-25T09:46:41;8.00;;;1.52;;
66886;SDS011;53798;51.680;5.976;2022-07-25T09:49:09;18.02;;;2.65;;
66886;SDS011;53798;51.680;5.976;2022-07-25T09:51:41;14.65;;;2.13;;
66886;SDS011;53798;51.680;5.976;2022-07-25T09:54:09;6.45;;;1.10;;
66886;SDS011;53798;51.680;5.976;2022-07-25T09:56:37;6.60;;;1.00;;
66886;SDS011;53798;51.680;5.976;2022-07-25T09:59:04;9.50;;;1.35;;
66886;SDS011;53798;51.680;5.976;2022-07-25T10:01:35;6.28;;;1.00;;
66886;SDS011;53798;51.680;5.976;2022-07-25T10:04:17;7.35;;;1.42;;
66886;SDS011;53798;51.680;5.976;2022-07-25T10:07:02;6.00;;;1.00;;
66886;SDS011;53798;51.680;5.976;2022-07-25T10:09:46;2.72;;;0.90;;
66886;SDS011;53798;51.680;5.976;2022-07-25T10:12:20;7.05;;;1.35;;
66886;SDS011;53798;51.680;5.976;2022-07-25T10:17:34;4.38;;;0.90;;
66886;SDS011;53798;51.680;5.976;2022-07-25T10:20:04;8.00;;;1.10;;
66886;SDS011;53798;51.680;5.976;2022-07-25T10:22:40;2.38;;;0.88;;
66886;SDS011;53798;51.680;5.976;2022-07-25T10:25:23;13.35;;;1.45;;
66886;SDS011;53798;51.680;5.976;2022-07-25T10:27:53;29.73;;;2.58;;
66886;SDS011;53798;51.680;5.976;2022-07-25T10:30:32;26.45;;;1.75;;
66886;SDS011;53798;51.680;5.976;2022-07-25T10:35:43;18.73;;;1.88;;
66886;SDS011;53798;51.680;5.976;2022-07-25T10:38:11;5.20;;;1.40;;
66886;SDS011;53798;51.680;5.976;2022-07-25T10:40:40;13.40;;;2.33;;
66886;SDS011;53798;51.680;5.976;2022-07-25T10:43:11;26.00;;;2.45;;
66886;SDS011;53798;51.680;5.976;2022-07-25T10:45:50;6.97;;;1.17;;
66886;SDS011;53798;51.680;5.976;2022-07-25T10:48:27;7.70;;;1.20;;
66886;SDS011;53798;51.680;5.976;2022-07-25T10:50:59;5.85;;;1.67;;
66886;SDS011;53798;51.680;5.976;2022-07-25T10:56:16;7.45;;;1.70;;
66886;SDS011;53798;51.680;5.976;2022-07-25T10:58:50;8.00;;;1.52;;
66886;SDS011;53798;51.680;5.976;2022-07-25T11:03:59;4.30;;;1.10;;
66886;SDS011;53798;51.680;5.976;2022-07-25T11:06:39;12.20;;;1.45;;
66886;SDS011;53798;51.680;5.976;2022-07-25T11:09:24;5.97;;;1.40;;
66886;SDS011;53798;51.680;5.976;2022-07-25T11:11:56;13.75;;;1.75;;
66886;SDS011;53798;51.680;5.976;2022-07-25T11:14:35;5.22;;;1.40;;
66886;SDS011;53798;51.680;5.976;2022-07-25T11:17:10;4.95;;;1.60;;
66886;SDS011;53798;51.680;5.976;2022-07-25T11:22:27;8.63;;;1.52;;
66886;SDS011;53798;51.680;5.976;2022-07-25T11:24:57;7.55;;;1.50;;
66886;SDS011;53798;51.680;5.976;2022-07-25T11:27:26;18.15;;;2.25;;
66886;SDS011;53798;51.680;5.976;2022-07-25T11:30:06;17.00;;;1.98;;
66886;SDS011;53798;51.680;5.976;2022-07-25T11:32:43;18.83;;;2.38;;
66886;SDS011;53798;51.680;5.976;2022-07-25T11:35:22;4.15;;;1.27;;
66886;SDS011;53798;51.680;5.976;2022-07-25T11:37:53;9.23;;;1.65;;
66886;SDS011;53798;51.680;5.976;2022-07-25T11:40:21;12.23;;;2.30;;
66886;SDS011;53798;51.680;5.976;2022-07-25T11:42:50;10.95;;;1.70;;
66886;SDS011;53798;51.680;5.976;2022-07-25T11:45:25;6.45;;;1.88;;
66886;SDS011;53798;51.680;5.976;2022-07-25T11:48:06;65.18;;;5.78;;
66886;SDS011;53798;51.680;5.976;2022-07-25T11:50:41;32.00;;;3.83;;
66886;SDS011;53798;51.680;5.976;2022-07-25T11:53:13;30.95;;;3.70;;
66886;SDS011;53798;51.680;5.976;2022-07-25T11:55:43;51.58;;;4.60;;
66886;SDS011;53798;51.680;5.976;2022-07-25T11:58:13;6.30;;;1.40;;
66886;SDS011;53798;51.680;5.976;2022-07-25T12:00:45;13.82;;;1.75;;
66886;SDS011;53798;51.680;5.976;2022-07-25T12:03:16;10.77;;;1.67;;
66886;SDS011;53798;51.680;5.976;2022-07-25T12:05:48;23.17;;;2.22;;
66886;SDS011;53798;51.680;5.976;2022-07-25T12:08:17;7.65;;;1.67;;
66886;SDS011;53798;51.680;5.976;2022-07-25T12:10:48;6.03;;;1.60;;
66886;SDS011;53798;51.680;5.976;2022-07-25T12:13:25;23.27;;;3.40;;
66886;SDS011;53798;51.680;5.976;2022-07-25T12:15:56;32.45;;;3.53;;
66886;SDS011;53798;51.680;5.976;2022-07-25T12:18:25;19.15;;;2.50;;
66886;SDS011;53798;51.680;5.976;2022-07-25T12:20:53;30.85;;;2.97;;
66886;SDS011;53798;51.680;5.976;2022-07-25T12:23:20;16.02;;;2.35;;
66886;SDS011;53798;51.680;5.976;2022-07-25T12:25:48;7.65;;;1.90;;
66886;SDS011;53798;51.680;5.976;2022-07-25T12:28:16;17.63;;;2.67;;
66886;SDS011;53798;51.680;5.976;2022-07-25T12:30:44;9.07;;;2.10;;
66886;SDS011;53798;51.680;5.976;2022-07-25T12:33:21;7.72;;;1.80;;
66886;SDS011;53798;51.680;5.976;2022-07-25T12:35:49;14.05;;;2.42;;
66886;SDS011;53798;51.680;5.976;2022-07-25T12:38:17;11.25;;;2.38;;
66886;SDS011;53798;51.680;5.976;2022-07-25T12:40:44;6.95;;;2.58;;
66886;SDS011;53798;51.680;5.976;2022-07-25T12:43:11;7.30;;;2.42;;
66886;SDS011;53798;51.680;5.976;2022-07-25T12:45:39;23.40;;;3.25;;
66886;SDS011;53798;51.680;5.976;2022-07-25T12:48:07;15.00;;;3.03;;
66886;SDS011;53798;51.680;5.976;2022-07-25T12:50:35;21.67;;;3.53;;
66886;SDS011;53798;51.680;5.976;2022-07-25T12:53:02;8.95;;;3.03;;
66886;SDS011;53798;51.680;5.976;2022-07-25T12:55:30;7.57;;;2.35;;
66886;SDS011;53798;51.680;5.976;2022-07-25T12:57:57;7.53;;;2.78;;
66886;SDS011;53798;51.680;5.976;2022-07-25T13:00:25;13.45;;;2.47;;
66886;SDS011;53798;51.680;5.976;2022-07-25T13:02:54;8.80;;;2.45;;
66886;SDS011;53798;51.680;5.976;2022-07-25T13:05:23;10.88;;;2.30;;
66886;SDS011;53798;51.680;5.976;2022-07-25T13:07:51;19.40;;;2.88;;
66886;SDS011;53798;51.680;5.976;2022-07-25T13:10:19;7.75;;;2.70;;
66886;SDS011;53798;51.680;5.976;2022-07-25T13:12:46;5.90;;;2.95;;
66886;SDS011;53798;51.680;5.976;2022-07-25T13:15:14;161.55;;;33.13;;
66886;SDS011;53798;51.680;5.976;2022-07-25T13:17:41;6.93;;;3.85;;
66886;SDS011;53798;51.680;5.976;2022-07-25T13:20:08;6.72;;;3.50;;
66886;SDS011;53798;51.680;5.976;2022-07-25T13:22:36;15.55;;;3.38;;
66886;SDS011;53798;51.680;5.976;2022-07-25T13:25:04;8.90;;;2.55;;
66886;SDS011;53798;51.680;5.976;2022-07-25T13:27:31;6.45;;;2.40;;
66886;SDS011;53798;51.680;5.976;2022-07-25T13:29:59;4.80;;;2.10;;
66886;SDS011;53798;51.680;5.976;2022-07-25T13:32:26;5.90;;;2.33;;
66886;SDS011;53798;51.680;5.976;2022-07-25T13:34:54;6.97;;;2.35;;
66886;SDS011;53798;51.680;5.976;2022-07-25T13:37:21;8.93;;;2.40;;
66886;SDS011;53798;51.680;5.976;2022-07-25T13:39:49;4.63;;;2.50;;
66886;SDS011;53798;51.680;5.976;2022-07-25T13:42:17;5.90;;;2.60;;
66886;SDS011;53798;51.680;5.976;2022-07-25T13:44:44;15.38;;;3.13;;
66886;SDS011;53798;51.680;5.976;2022-07-25T13:47:11;5.45;;;2.70;;
66886;SDS011;53798;51.680;5.976;2022-07-25T13:49:38;6.38;;;2.15;;
66886;SDS011;53798;51.680;5.976;2022-07-25T13:52:06;6.75;;;2.55;;
66886;SDS011;53798;51.680;5.976;2022-07-25T13:54:34;9.40;;;2.38;;
66886;SDS011;53798;51.680;5.976;2022-07-25T13:57:01;4.82;;;2.17;;
66886;SDS011;53798;51.680;5.976;2022-07-25T13:59:29;7.68;;;2.08;;
66886;SDS011;53798;51.680;5.976;2022-07-25T14:01:56;10.57;;;2.25;;
66886;SDS011;53798;51.680;5.976;2022-07-25T14:04:23;10.50;;;2.10;;
66886;SDS011;53798;51.680;5.976;2022-07-25T14:06:52;9.10;;;1.88;;
66886;SDS011;53798;51.680;5.976;2022-07-25T14:09:20;5.53;;;1.88;;
66886;SDS011;53798;51.680;5.976;2022-07-25T14:11:48;4.28;;;1.80;;
66886;SDS011;53798;51.680;5.976;2022-07-25T14:14:15;4.03;;;1.63;;
66886;SDS011;53798;51.680;5.976;2022-07-25T14:16:43;10.65;;;1.63;;
66886;SDS011;53798;51.680;5.976;2022-07-25T14:19:11;5.35;;;1.73;;
66886;SDS011;53798;51.680;5.976;2022-07-25T14:21:38;7.45;;;1.50;;
66886;SDS011;53798;51.680;5.976;2022-07-25T14:24:05;2.28;;;1.40;;
66886;SDS011;53798;51.680;5.976;2022-07-25T14:26:34;7.40;;;1.40;;
66886;SDS011;53798;51.680;5.976;2022-07-25T14:29:01;7.45;;;1.73;;
66886;SDS011;53798;51.680;5.976;2022-07-25T14:31:29;6.43;;;1.70;;
66886;SDS011;53798;51.680;5.976;2022-07-25T14:34:04;7.55;;;1.70;;
66886;SDS011;53798;51.680;5.976;2022-07-25T14:36:33;7.22;;;2.00;;
66886;SDS011;53798;51.680;5.976;2022-07-25T14:39:01;14.80;;;2.50;;
66886;SDS011;53798;51.680;5.976;2022-07-25T14:41:31;5.13;;;1.63;;
66886;SDS011;53798;51.680;5.976;2022-07-25T14:43:58;6.88;;;1.52;;
66886;SDS011;53798;51.680;5.976;2022-07-25T14:46:25;7.93;;;1.65;;
66886;SDS011;53798;51.680;5.976;2022-07-25T14:48:53;7.10;;;1.67;;
66886;SDS011;53798;51.680;5.976;2022-07-25T14:51:20;9.30;;;1.98;;
66886;SDS011;53798;51.680;5.976;2022-07-25T14:53:48;7.32;;;2.08;;
66886;SDS011;53798;51.680;5.976;2022-07-25T14:56:25;10.05;;;1.95;;
66886;SDS011;53798;51.680;5.976;2022-07-25T14:58:52;7.78;;;1.90;;
66886;SDS011;53798;51.680;5.976;2022-07-25T15:01:19;12.90;;;2.42;;
66886;SDS011;53798;51.680;5.976;2022-07-25T15:03:50;11.00;;;1.90;;